createdAt,value
2022-09-20T00:00:34.889Z,97945.33
2022-09-20T00:03:59.717Z,97944.63
2022-09-20T00:07:02.538Z,97945.65
2022-09-20T00:10:05.928Z,97943.38
2022-09-20T00:13:11.107Z,97939.92
2022-09-20T00:16:17.630Z,97949.42
2022-09-20T00:19:22.290Z,97952.97
2022-09-20T00:22:25.198Z,97957.27
2022-09-20T00:25:28.093Z,97951.24
2022-09-20T00:28:31.839Z,97953.99
2022-09-20T00:31:35.780Z,97957.70
2022-09-20T00:34:57.216Z,97958.00
2022-09-20T00:38:00.089Z,97958.72
2022-09-20T00:41:03.020Z,97960.67
2022-09-20T00:44:44.556Z,97964.92
2022-09-20T00:47:53.544Z,97966.48
2022-09-20T00:51:09.036Z,97966.42
2022-09-20T00:54:19.971Z,97967.67
2022-09-20T00:57:23.830Z,97969.80
2022-09-20T01:00:27.594Z,97970.52
2022-09-20T01:03:33.240Z,97971.77
2022-09-20T01:06:36.499Z,97969.50
2022-09-20T01:09:39.351Z,97975.16
2022-09-20T01:12:43.743Z,97971.54
2022-09-20T01:15:49.283Z,97970.77
2022-09-20T01:18:53.087Z,97968.72
2022-09-20T01:21:56.291Z,97968.23
2022-09-20T01:25:29.799Z,97963.70
2022-09-20T01:28:33.525Z,97963.30
2022-09-20T01:31:44.968Z,97964.33
2022-09-20T01:34:54.091Z,97969.44
2022-09-20T01:38:16.159Z,97968.50
2022-09-20T01:41:26.834Z,97975.56
2022-09-20T01:45:11.079Z,97976.60
2022-09-20T01:48:19.127Z,97972.75
2022-09-20T01:51:48.215Z,97972.83
2022-09-20T01:55:41.176Z,97970.86
2022-09-20T01:59:23.763Z,97971.02
2022-09-20T02:02:42.523Z,97972.43
2022-09-20T02:05:48.048Z,97974.34
2022-09-20T02:09:09.600Z,97973.14
2022-09-20T02:12:55.429Z,97974.02
2022-09-20T02:16:24.841Z,97973.77
2022-09-20T02:19:45.995Z,97972.43
2022-09-20T02:23:26.493Z,97974.23
2022-09-20T02:27:07.873Z,97974.63
2022-09-20T02:30:28.482Z,97979.50
2022-09-20T02:33:55.840Z,97981.94
2022-09-20T02:37:49.776Z,97986.03
2022-09-20T02:41:24.839Z,97988.10
2022-09-20T02:45:01.350Z,97987.07
2022-09-20T02:48:05.133Z,97993.83
2022-09-20T02:51:33.484Z,97998.08
2022-09-20T02:55:04.498Z,98001.77
2022-09-20T02:58:13.074Z,98005.14
2022-09-20T03:01:24.967Z,98003.65
2022-09-20T03:04:57.421Z,98004.98
2022-09-20T03:08:37.225Z,98007.96
2022-09-20T03:12:03.292Z,98006.70
2022-09-20T03:15:38.888Z,98001.69
2022-09-20T03:19:09.171Z,98000.58
2022-09-20T03:22:33.316Z,97998.16
2022-09-20T03:25:48.215Z,97998.31
2022-09-20T03:29:00.126Z,97996.36
2022-09-20T03:32:24.425Z,97994.41
2022-09-20T03:35:36.239Z,97997.16
2022-09-20T03:38:42.068Z,97998.73
2022-09-20T03:41:56.898Z,98000.79
2022-09-20T03:45:19.688Z,98004.71
2022-09-20T03:49:06.944Z,98010.45
2022-09-20T03:52:28.540Z,98017.83
2022-09-20T03:55:53.548Z,98019.64
2022-09-20T03:59:25.192Z,98023.09
2022-09-20T04:03:09.158Z,98024.58
2022-09-20T04:06:18.983Z,98025.69
2022-09-20T04:09:47.476Z,98028.67
2022-09-20T04:13:05.344Z,98028.67
2022-09-20T04:16:20.242Z,98029.14
2022-09-20T04:19:40.096Z,98030.65
2022-09-20T04:22:44.855Z,98037.02
2022-09-20T04:25:48.435Z,98036.16
2022-09-20T04:29:05.728Z,98038.67
2022-09-20T04:32:30.081Z,98042.27
2022-09-20T04:36:07.634Z,98042.30
2022-09-20T04:39:28.711Z,98042.05
2022-09-20T04:42:54.724Z,98046.23
2022-09-20T04:46:03.543Z,98045.60
2022-09-20T04:49:43.922Z,98044.66
2022-09-20T04:52:53.669Z,98048.74
2022-09-20T04:56:11.812Z,98048.20
2022-09-20T05:00:02.707Z,98049.68
2022-09-20T05:03:30.345Z,98050.39
2022-09-20T05:06:50.905Z,98055.19
2022-09-20T05:09:56.266Z,98058.80
2022-09-20T05:13:17.016Z,98065.79
2022-09-20T05:16:35.548Z,98072.16
2022-09-20T05:20:05.642Z,98064.69
2022-09-20T05:23:27.031Z,98070.18
2022-09-20T05:26:46.650Z,98077.34
2022-09-20T05:29:59.545Z,98081.89
2022-09-20T05:33:22.298Z,98080.55
2022-09-20T05:36:46.000Z,98084.89
2022-09-20T05:39:58.182Z,98086.86
2022-09-20T05:43:16.338Z,98084.97
2022-09-20T05:46:42.364Z,98087.40
2022-09-20T05:50:30.012Z,98086.38
2022-09-20T05:53:51.477Z,98088.43
2022-09-20T05:57:17.093Z,98091.73
2022-09-20T06:00:21.538Z,98091.49
2022-09-20T06:03:37.533Z,98093.06
2022-09-20T06:07:12.557Z,98098.00
2022-09-20T06:10:33.576Z,98098.30
2022-09-20T06:13:49.865Z,98104.67
2022-09-20T06:17:20.267Z,98107.27
2022-09-20T06:20:37.399Z,98113.79
2022-09-20T06:23:40.337Z,98111.60
2022-09-20T06:26:44.706Z,98115.37
2022-09-20T06:29:53.369Z,98118.74
2022-09-20T06:33:00.250Z,98118.83
2022-09-20T06:36:40.506Z,98117.40
2022-09-20T06:40:39.587Z,98123.46
2022-09-20T06:43:43.105Z,98124.16
2022-09-20T06:46:45.955Z,98128.09
2022-09-20T06:49:50.198Z,98127.85
2022-09-20T06:52:53.721Z,98127.30
2022-09-20T06:55:57.938Z,98125.10
2022-09-20T06:59:01.212Z,98126.66
2022-09-20T07:02:04.333Z,98128.94
2022-09-20T07:05:13.368Z,98130.27
2022-09-20T07:08:17.418Z,98131.54
2022-09-20T07:11:20.535Z,98136.95
2022-09-20T07:14:23.767Z,98142.15
2022-09-20T07:17:27.025Z,98145.05
2022-09-20T07:20:29.921Z,98145.52
2022-09-20T07:23:33.200Z,98154.08
2022-09-20T07:26:37.249Z,98155.89
2022-09-20T07:29:41.213Z,98160.14
2022-09-20T07:32:44.257Z,98163.04
2022-09-20T07:35:52.710Z,98161.53
2022-09-20T07:38:56.199Z,98161.45
2022-09-20T07:41:59.371Z,98162.63
2022-09-20T07:45:03.838Z,98165.30
2022-09-20T07:48:07.281Z,98170.39
2022-09-20T07:51:14.266Z,98170.72
2022-09-20T07:54:17.967Z,98174.95
2022-09-20T07:57:20.982Z,98176.21
2022-09-20T08:00:23.953Z,98179.28
2022-09-20T08:03:29.044Z,98182.41
2022-09-20T08:06:32.737Z,98181.70
2022-09-20T08:09:35.885Z,98185.39
2022-09-20T08:16:07.621Z,98193.07
2022-09-20T08:19:17.087Z,98193.61
2022-09-20T08:22:20.323Z,98197.86
2022-09-20T08:25:23.336Z,98199.29
2022-09-20T08:28:26.311Z,98202.72
2022-09-20T08:31:32.462Z,98203.34
2022-09-20T08:34:35.459Z,98208.85
2022-09-20T08:37:39.167Z,98206.72
2022-09-20T08:40:42.163Z,98209.07
2022-09-20T08:43:53.850Z,98212.79
2022-09-20T08:47:19.366Z,98212.63
2022-09-20T08:50:23.108Z,98215.45
2022-09-20T08:53:29.039Z,98221.97
2022-09-20T08:56:39.084Z,98221.25
2022-09-20T08:59:42.383Z,98225.89
2022-09-20T09:02:45.956Z,98226.59
2022-09-20T09:05:54.938Z,98222.34
2022-09-20T09:08:59.656Z,98227.04
2022-09-20T09:12:03.890Z,98222.86
2022-09-20T09:15:29.517Z,98226.30
2022-09-20T09:18:37.695Z,98222.04
2022-09-20T09:21:43.446Z,98221.77
2022-09-20T09:25:06.902Z,98223.70
2022-09-20T09:28:09.751Z,98218.39
2022-09-20T09:31:20.056Z,98212.92
2022-09-20T09:34:30.678Z,98209.58
2022-09-20T09:37:34.584Z,98213.32
2022-09-20T09:40:37.898Z,98216.14
2022-09-20T09:43:40.837Z,98215.70
2022-09-20T09:46:44.291Z,98209.77
2022-09-20T09:50:03.793Z,98203.28
2022-09-20T09:53:15.261Z,98203.23
2022-09-20T09:56:33.048Z,98206.03
2022-09-20T09:59:51.048Z,98215.42
2022-09-20T10:03:00.730Z,98219.08
2022-09-20T10:06:10.813Z,98224.11
2022-09-20T10:09:41.569Z,98223.48
2022-09-20T10:13:03.530Z,98231.06
2022-09-20T10:16:09.544Z,98234.30
2022-09-20T10:19:43.504Z,98235.63
2022-09-20T10:26:44.073Z,98228.15
2022-09-20T10:30:16.740Z,98223.45
2022-09-20T10:33:28.134Z,98222.69
2022-09-20T10:36:57.234Z,98220.49
2022-09-20T10:41:00.769Z,98221.14
2022-09-20T10:44:27.539Z,98220.50
2022-09-20T10:47:38.187Z,98218.64
2022-09-20T10:51:14.860Z,98216.31
2022-09-20T10:54:52.094Z,98213.47
2022-09-20T10:58:24.635Z,98210.64
2022-09-20T11:01:38.418Z,98207.46
2022-09-20T11:05:16.505Z,98215.73
2022-09-20T11:08:28.577Z,98212.55
2022-09-20T11:11:40.487Z,98208.44
2022-09-20T11:14:59.896Z,98211.58
2022-09-20T11:18:23.342Z,98208.30
2022-09-20T11:21:38.489Z,98209.76
2022-09-20T11:24:55.635Z,98207.80
2022-09-20T11:28:07.891Z,98209.35
2022-09-20T11:31:33.346Z,98211.22
2022-09-20T11:34:49.793Z,98213.53
2022-09-20T11:38:03.147Z,98213.86
2022-09-20T11:41:20.152Z,98211.77
2022-09-20T11:44:23.667Z,98210.88
2022-09-20T11:47:55.560Z,98216.93
2022-09-20T11:51:01.670Z,98212.10
2022-09-20T11:54:39.078Z,98213.71
2022-09-20T11:57:42.180Z,98213.64
2022-09-20T12:00:47.964Z,98210.33
2022-09-20T12:04:08.693Z,98209.70
2022-09-20T12:07:23.021Z,98206.78
2022-09-20T12:10:30.587Z,98211.08
2022-09-20T12:13:37.607Z,98206.78
2022-09-20T12:16:42.165Z,98201.42
2022-09-20T12:19:45.159Z,98204.70
2022-09-20T12:22:48.131Z,98203.79
2022-09-20T12:26:05.425Z,98203.09
2022-09-20T12:29:23.604Z,98202.52
2022-09-20T12:32:37.113Z,98202.69
2022-09-20T12:35:40.117Z,98203.39
2022-09-20T12:38:48.320Z,98201.15
2022-09-20T12:41:55.717Z,98195.17
2022-09-20T12:45:07.397Z,98193.30
2022-09-20T12:48:19.597Z,98194.52
2022-09-20T12:51:50.685Z,98192.56
2022-09-20T12:54:56.352Z,98194.25
2022-09-20T12:58:03.684Z,98195.31
2022-09-20T13:01:10.590Z,98194.70
2022-09-20T13:04:53.101Z,98191.20
2022-09-20T13:08:02.955Z,98196.17
2022-09-20T13:11:33.754Z,98197.66
2022-09-20T13:14:40.715Z,98199.95
2022-09-20T13:17:44.812Z,98197.57
2022-09-20T13:20:48.476Z,98200.71
2022-09-20T13:23:54.234Z,98197.23
2022-09-20T13:27:06.437Z,98194.45
2022-09-20T13:30:23.782Z,98189.32
2022-09-20T13:33:26.733Z,98191.31
2022-09-20T13:36:31.751Z,98195.52
2022-09-20T13:39:37.886Z,98197.35
2022-09-20T13:42:42.047Z,98198.56
2022-09-20T13:45:47.454Z,98199.98
2022-09-20T13:49:09.224Z,98200.90
2022-09-20T13:52:27.168Z,98201.33
2022-09-20T13:55:31.976Z,98198.76
2022-09-20T13:58:37.265Z,98202.41
2022-09-20T14:01:49.625Z,98206.66
2022-09-20T14:04:54.754Z,98213.61
2022-09-20T14:08:00.757Z,98212.88
2022-09-20T14:11:28.889Z,98220.23
2022-09-20T14:14:35.140Z,98217.89
2022-09-20T14:17:38.384Z,98217.70
2022-09-20T14:20:43.669Z,98218.98
2022-09-20T14:23:52.435Z,98219.91
2022-09-20T14:27:23.652Z,98214.48
2022-09-20T14:30:37.872Z,98211.77
2022-09-20T14:33:43.966Z,98213.56
2022-09-20T14:36:49.611Z,98214.01
2022-09-20T14:39:58.579Z,98213.66
2022-09-20T14:43:04.533Z,98217.10
2022-09-20T14:46:18.441Z,98219.08
2022-09-20T14:49:21.251Z,98218.86
2022-09-20T14:52:27.391Z,98223.55
2022-09-20T14:55:37.187Z,98224.12
2022-09-20T14:59:11.554Z,98223.52
2022-09-20T15:02:15.816Z,98223.83
2022-09-20T15:05:24.017Z,98223.99
2022-09-20T15:08:27.291Z,98228.57
2022-09-20T15:11:30.567Z,98236.41
2022-09-20T15:14:37.440Z,98243.69
2022-09-20T15:17:45.356Z,98249.41
2022-09-20T15:20:50.038Z,98252.37
2022-09-20T15:23:53.367Z,98250.77
2022-09-20T15:26:56.230Z,98252.77
2022-09-20T15:29:59.150Z,98252.54
2022-09-20T15:33:03.245Z,98255.77
2022-09-20T15:36:06.734Z,98255.25
2022-09-20T15:39:09.606Z,98259.77
2022-09-20T15:42:12.596Z,98264.80
2022-09-20T15:45:15.841Z,98267.41
2022-09-20T15:48:21.559Z,98277.88
2022-09-20T15:51:24.945Z,98277.31
2022-09-20T15:54:28.034Z,98275.48
2022-09-20T15:57:32.140Z,98277.66
2022-09-20T16:00:35.828Z,98279.15
2022-09-20T16:03:38.929Z,98281.95
2022-09-20T16:06:45.044Z,98282.38
2022-09-20T16:09:48.785Z,98282.98
2022-09-20T16:12:52.283Z,98285.31
2022-09-20T16:16:00.258Z,98292.67
2022-09-20T16:19:20.867Z,98297.82
2022-09-20T16:22:24.330Z,98304.70
2022-09-20T16:25:27.633Z,98304.96
2022-09-20T16:28:30.959Z,98308.70
2022-09-20T16:31:43.372Z,98312.05
2022-09-20T16:34:46.654Z,98314.67
2022-09-20T16:37:50.048Z,98318.63
2022-09-20T16:40:54.735Z,98319.61
2022-09-20T16:43:58.530Z,98327.96
2022-09-20T16:47:02.631Z,98328.61
2022-09-20T16:50:06.449Z,98334.52
2022-09-20T16:53:10.020Z,98339.32
2022-09-20T16:56:25.142Z,98340.52
2022-09-20T16:59:29.255Z,98343.45
2022-09-20T17:02:34.198Z,98348.19
2022-09-20T17:05:39.866Z,98345.84
2022-09-20T17:08:45.656Z,98352.79
2022-09-20T17:11:51.366Z,98354.61
2022-09-20T17:14:55.701Z,98360.23
2022-09-20T17:18:00.792Z,98367.09
2022-09-20T17:21:07.255Z,98368.20
2022-09-20T17:24:12.475Z,98364.41
2022-09-20T17:27:16.927Z,98367.50
2022-09-20T17:30:21.404Z,98373.33
2022-09-20T17:33:27.384Z,98380.52
2022-09-20T17:36:32.864Z,98382.48
2022-09-20T17:39:35.887Z,98385.96
2022-09-20T17:42:39.171Z,98391.25
2022-09-20T17:45:42.112Z,98390.46
2022-09-20T17:48:49.020Z,98394.41
2022-09-20T17:51:54.664Z,98398.11
2022-09-20T17:54:57.688Z,98401.73
2022-09-20T17:58:01.140Z,98405.51
2022-09-20T18:01:10.929Z,98411.73
2022-09-20T18:04:16.147Z,98419.29
2022-09-20T18:07:19.195Z,98423.77
2022-09-20T18:10:22.380Z,98428.73
2022-09-20T18:13:27.790Z,98429.96
2022-09-20T18:16:31.744Z,98433.29
2022-09-20T18:19:35.854Z,98433.60
2022-09-20T18:22:38.840Z,98435.09
2022-09-20T18:26:00.282Z,98435.95
2022-09-20T18:29:16.934Z,98440.46
2022-09-20T18:32:20.149Z,98442.02
2022-09-20T18:35:23.653Z,98448.64
2022-09-20T18:38:28.136Z,98445.81
2022-09-20T18:41:34.028Z,98451.88
2022-09-20T18:44:39.487Z,98459.28
2022-09-20T18:47:47.249Z,98455.04
2022-09-20T18:51:11.925Z,98458.50
2022-09-20T18:54:17.491Z,98457.71
2022-09-20T18:57:20.860Z,98462.52
2022-09-20T19:00:27.618Z,98466.78
2022-09-20T19:03:57.423Z,98467.58
2022-09-20T19:07:29.579Z,98468.20
2022-09-20T19:10:45.568Z,98467.16
2022-09-20T19:14:05.100Z,98467.73
2022-09-20T19:17:11.163Z,98472.13
2022-09-20T19:20:41.423Z,98482.21
2022-09-20T19:24:07.287Z,98482.16
2022-09-20T19:27:15.634Z,98482.87
2022-09-20T19:30:19.971Z,98487.59
2022-09-20T19:33:23.118Z,98478.84
2022-09-20T19:36:57.924Z,98498.98
2022-09-20T19:40:10.951Z,98505.70
2022-09-20T19:43:29.962Z,98506.88
2022-09-20T19:47:01.963Z,98507.20
2022-09-20T19:50:40.654Z,98500.52
2022-09-20T19:53:43.929Z,98497.77
2022-09-20T19:56:54.586Z,98499.73
2022-09-20T19:59:58.384Z,98502.48
2022-09-20T20:03:01.696Z,98504.69
2022-09-20T20:06:36.414Z,98502.10
2022-09-20T20:09:57.070Z,98504.54
2022-09-20T20:13:34.537Z,98505.32
2022-09-20T20:17:06.711Z,98503.75
2022-09-20T20:20:22.468Z,98507.46
2022-09-20T20:23:43.786Z,98500.45
2022-09-20T20:26:47.073Z,98498.49
2022-09-20T20:29:50.419Z,98500.38
2022-09-20T20:32:59.631Z,98502.88
2022-09-20T20:36:02.950Z,98508.64
2022-09-20T20:39:10.860Z,98513.13
2022-09-20T20:42:15.076Z,98513.83
2022-09-20T20:45:19.726Z,98512.34
2022-09-20T20:48:28.203Z,98511.85
2022-09-20T20:51:35.220Z,98519.73
2022-09-20T20:54:38.194Z,98524.61
2022-09-20T20:57:44.217Z,98520.98
2022-09-20T21:00:48.910Z,98521.93
2022-09-20T21:03:56.230Z,98520.20
2022-09-20T21:07:00.198Z,98521.46
2022-09-20T21:10:03.455Z,98523.19
2022-09-20T21:13:06.479Z,98521.70
2022-09-20T21:16:19.969Z,98524.30
2022-09-20T21:19:24.103Z,98523.81
2022-09-20T21:22:26.989Z,98524.77
2022-09-20T21:25:29.884Z,98524.83
2022-09-20T21:28:33.037Z,98535.15
2022-09-20T21:31:38.197Z,98541.20
2022-09-20T21:34:41.322Z,98537.83
2022-09-20T21:37:44.987Z,98543.17
2022-09-20T21:40:47.840Z,98541.44
2022-09-20T21:43:56.174Z,98540.64
2022-09-20T21:46:59.013Z,98539.95
2022-09-20T21:50:02.062Z,98541.67
2022-09-20T21:53:04.927Z,98548.60
2022-09-20T21:56:10.398Z,98547.81
2022-09-20T21:59:13.447Z,98543.25
2022-09-20T22:02:17.121Z,98544.83
2022-09-20T22:05:20.463Z,98550.26
2022-09-20T22:08:23.309Z,98549.79
2022-09-20T22:11:28.387Z,98540.26
2022-09-20T22:14:31.209Z,98541.98
2022-09-20T22:17:34.002Z,98537.19
2022-09-20T22:20:36.796Z,98531.30
2022-09-20T22:23:40.495Z,98532.15
2022-09-20T22:26:53.660Z,98536.33
2022-09-20T22:30:00.341Z,98536.33
2022-09-20T22:33:05.687Z,98534.67
2022-09-20T22:36:10.446Z,98533.96
2022-09-20T22:39:14.499Z,98533.50
2022-09-20T22:42:17.399Z,98536.09
2022-09-20T22:45:20.359Z,98535.46
2022-09-20T22:48:23.150Z,98545.38
2022-09-20T22:51:28.466Z,98543.17
2022-09-20T22:54:31.356Z,98541.44
2022-09-20T22:57:34.480Z,98542.77
2022-09-20T23:00:37.363Z,98548.45
2022-09-20T23:03:42.713Z,98544.20
2022-09-20T23:06:54.830Z,98543.48
2022-09-20T23:09:57.857Z,98547.41
2022-09-20T23:13:00.764Z,98548.59
2022-09-20T23:16:14.753Z,98552.84
2022-09-20T23:19:18.076Z,98550.25
2022-09-20T23:22:20.935Z,98550.70
2022-09-20T23:25:23.722Z,98550.55
2022-09-20T23:28:27.307Z,98553.77
2022-09-20T23:31:32.388Z,98555.51
2022-09-20T23:34:35.302Z,98554.40
2022-09-20T23:37:38.571Z,98557.93
2022-09-20T23:40:41.381Z,98558.08
2022-09-20T23:43:44.751Z,98556.90
2022-09-20T23:46:47.603Z,98558.30
2022-09-20T23:49:50.395Z,98561.73
2022-09-20T23:52:53.357Z,98560.47
2022-09-20T23:55:56.269Z,98562.42
2022-09-20T23:58:59.202Z,98562.42
